Address 0x209469c921db9d5bd77084370e80b63d5cdd63c1 7

Overview

Balance:
1.49576844920492528 xDAI

xDAI Value:
$1.49 (@ $0.99/xDAI)
Txn Hash Method
Block
From
To
Value [Txn Fee]
0xf70e3243eff659e629cedf06806c43b34380a436b02ce9a5e7506f7cc22e7c84Ask Question Wit...243094242022-09-23 16:49:451 day 6 hrs ago0x209469c921db9d5bd77084370e80b63d5cdd63c1OUT 0xe78996a233895be74a66f451f1019ca9734205cc0 xDAI0.000287775
0xdf64e56b07b3a3c37ac8d8b79d4563be1e3bae29e252264df34518f9ff149076Ask Question Wit...243094222022-09-23 16:49:351 day 6 hrs ago0x209469c921db9d5bd77084370e80b63d5cdd63c1OUT 0xe78996a233895be74a66f451f1019ca9734205cc0 xDAI0.000287835
0xcf1310dac2914b9ac217860eb2cdbc1de4b24425e2ddfdb8ff12f9104c46ac8eAsk Question Wit...242235322022-09-17 13:25:557 days 10 hrs ago0x209469c921db9d5bd77084370e80b63d5cdd63c1OUT 0xe78996a233895be74a66f451f1019ca9734205cc0 xDAI0.0002830825
0x935581c73fefd06695bba5db0d635da1c81d528efdd7410c761671c0a1125218Ask Question Wit...242234832022-09-17 13:20:557 days 10 hrs ago0x209469c921db9d5bd77084370e80b63d5cdd63c1OUT 0xe78996a233895be74a66f451f1019ca9734205cc0 xDAI0.0002830225
0xf85a253447bfac32889d496439cf49c6178b684fc7557220391f068c624b31eaAsk Question Wit...242106262022-09-16 15:22:158 days 8 hrs ago0x209469c921db9d5bd77084370e80b63d5cdd63c1OUT 0xe78996a233895be74a66f451f1019ca9734205cc0 xDAI0.0002830525
0x9678eedca8d500ae9f6e00b707bbc31fcac0a215c0a1ab022844b28352b67689Ask Question Wit...242106252022-09-16 15:22:108 days 8 hrs ago0x209469c921db9d5bd77084370e80b63d5cdd63c1OUT 0xe78996a233895be74a66f451f1019ca9734205cc0 xDAI0.0002830525
0x01b2829006ee0a3b56620c287489f45a563d35dc52d2e2b4df779ce8eef76152Ask Question Wit...242105982022-09-16 15:19:258 days 8 hrs ago0x209469c921db9d5bd77084370e80b63d5cdd63c1OUT 0xe78996a233895be74a66f451f1019ca9734205cc0 xDAI0.0002882625
0x8acda7eb906be4545c0e08006c8c70275a2d1a9e4d1bde8c4557d3d4de8ba92bAsk Question Wit...242084952022-09-16 11:43:408 days 12 hrs ago0x209469c921db9d5bd77084370e80b63d5cdd63c1OUT 0xe78996a233895be74a66f451f1019ca9734205cc0 xDAI0.0001729515
0x2dbcb4b18eca61dca9240281ade1cc680cc3a4c68a221d74db9b4ab3d9f30f25Submit Evidence242082922022-09-16 11:22:558 days 12 hrs ago0x209469c921db9d5bd77084370e80b63d5cdd63c1OUT 0x2a2bab2c2d4eb5007b0389720b287d4d19dc40010 xDAI0.000066435
0xe24f4af82e6783d55b74cbd9c9008fd133ece54c66ab4fd556f1ebd8be105df8Ask Question Wit...242080982022-09-16 11:03:008 days 12 hrs ago0x209469c921db9d5bd77084370e80b63d5cdd63c1OUT 0xe78996a233895be74a66f451f1019ca9734205cc0 xDAI0.0002882925
0x6e8ad68d21b5a9a98a3d707b06780730c4b98157344e5fa5be1a9a5816636e84Ask Question Wit...242036882022-09-16 3:30:458 days 20 hrs ago0x209469c921db9d5bd77084370e80b63d5cdd63c1OUT 0xe78996a233895be74a66f451f1019ca9734205cc0 xDAI0.00028578
0xb41dbe57f443e142c3cd8a72e2edf465145d826c02496df001c3351c604897b0Ask Question Wit...242030932022-09-16 2:29:408 days 21 hrs ago0x209469c921db9d5bd77084370e80b63d5cdd63c1OUT 0xe78996a233895be74a66f451f1019ca9734205cc0 xDAI0.00028602
0xa63471b6a59841b3524a048284c2a54704f05e91f51a8c4001409528eb614a0aAsk Question Wit...242029322022-09-16 2:13:108 days 21 hrs ago0x209469c921db9d5bd77084370e80b63d5cdd63c1OUT 0xe78996a233895be74a66f451f1019ca9734205cc0 xDAI0.00028611
0x64f8b34137d87800cf9c07f03ba4fcc8e57ad2718730a5d0208e5ab05087fd8aAsk Question Wit...242029302022-09-16 2:12:558 days 21 hrs ago0x209469c921db9d5bd77084370e80b63d5cdd63c1OUT 0xe78996a233895be74a66f451f1019ca9734205cc0 xDAI0.00028605
0xf8aeeaad00706d03cb22a90ac63bc49c56954ec3ac89fe04503f0d151b52453dSubmit Evidence242028792022-09-16 2:07:408 days 21 hrs ago0x209469c921db9d5bd77084370e80b63d5cdd63c1OUT 0x2a2bab2c2d4eb5007b0389720b287d4d19dc40010 xDAI0.000066435
0x6c40c8c4053da3b7ae5fcc6eb18bd401e6320ae9ac1a2a8ef27f5dc5b30d23f7Submit Evidence242028782022-09-16 2:07:358 days 21 hrs ago0x209469c921db9d5bd77084370e80b63d5cdd63c1OUT 0x2a2bab2c2d4eb5007b0389720b287d4d19dc40010 xDAI0.000066435
0xb93a24a908badf9c86e97b31067c1445530286604a486fde9b7b764b11200a31Submit Evidence242028772022-09-16 2:07:308 days 21 hrs ago0x209469c921db9d5bd77084370e80b63d5cdd63c1OUT 0x2a2bab2c2d4eb5007b0389720b287d4d19dc40010 xDAI0.000066435
0x1220000810059129328c9ebf7b1f70a8b134e1ff030dfd83daa5db13f77dd832Submit Evidence242028762022-09-16 2:07:258 days 21 hrs ago0x209469c921db9d5bd77084370e80b63d5cdd63c1OUT 0x2a2bab2c2d4eb5007b0389720b287d4d19dc40010 xDAI0.000066435
0x87fd3fde31a02696a1e333f5e01ac30a116cee456ca57ec6db9becf14298163cAsk Question Wit...242028472022-09-16 2:04:258 days 21 hrs ago0x209469c921db9d5bd77084370e80b63d5cdd63c1OUT 0xe78996a233895be74a66f451f1019ca9734205cc0 xDAI0.000287835
0xb93806d1eb186f16290b9a0ef845437e3259c67d02663f4ed350de008edcab0eAsk Question Wit...242027712022-09-16 1:56:358 days 21 hrs ago0x209469c921db9d5bd77084370e80b63d5cdd63c1OUT 0xe78996a233895be74a66f451f1019ca9734205cc0 xDAI0.00028608
0xc8516cb70f63eca3275e1301e2a6ef85c9cd08788ca035a774eeca0c436a5e29Ask Question Wit...242027652022-09-16 1:56:058 days 21 hrs ago0x209469c921db9d5bd77084370e80b63d5cdd63c1OUT 0xe78996a233895be74a66f451f1019ca9734205cc0 xDAI0.00028605
0xb20fdfaf889e34ad8aed559da3982ced5e32a3ba4ac091b05c8600dbf4d8beceAsk Question Wit...241853512022-09-14 20:09:0010 days 3 hrs ago0x209469c921db9d5bd77084370e80b63d5cdd63c1OUT 0xe78996a233895be74a66f451f1019ca9734205cc0 xDAI0.000287955
0x898aef8d2c1c3d942b8d77dcc6689ddd74377d7f75b180d163f1f88e85a3d66aSubmit Evidence241831032022-09-14 16:18:3010 days 7 hrs ago0x209469c921db9d5bd77084370e80b63d5cdd63c1OUT 0x2a2bab2c2d4eb5007b0389720b287d4d19dc40010 xDAI0.000066435
0xae805c23255f76ae6c74bfe6c229db09edcc03d36a13f89ec3b8c0fb36b09ce1Submit Evidence241831022022-09-14 16:18:2010 days 7 hrs ago0x209469c921db9d5bd77084370e80b63d5cdd63c1OUT 0x2a2bab2c2d4eb5007b0389720b287d4d19dc40010 xDAI0.000066435
0xdb18b87fa84a0222405cd2dbbb6b50c564562700fb183dea665d6f576aa9caf5Submit Evidence241831002022-09-14 16:18:1010 days 7 hrs ago0x209469c921db9d5bd77084370e80b63d5cdd63c1OUT 0x2a2bab2c2d4eb5007b0389720b287d4d19dc40010 xDAI0.000066435
[ Download CSV Export 
Latest 7 internal transactions
Parent Txn Hash Block From To Value
0xc79f212bfc50e2874ed9afe9cb19b1c479f5eee2270fdacc71a017846f82b6e6238636732022-08-24 11:55:0531 days 11 hrs ago 0x44ce2dd86fa90b7ea9709d11260773cbcf10ef470x209469c921db9d5bd77084370e80b63d5cdd63c10.02 xDAI
0xdeb038719e4fd2d9923ebe51ae04d7773ff5c02cbe2787ab392fce2f7cfc4611237850822022-08-19 22:43:3536 days 1 hr ago 0x44ce2dd86fa90b7ea9709d11260773cbcf10ef470x209469c921db9d5bd77084370e80b63d5cdd63c10.02 xDAI
0xc4dcfd5da6b7dfa0476504e851f00d777050e5c6603e3422b00e073e574d4fc0237804622022-08-19 16:18:2536 days 7 hrs ago 0x44ce2dd86fa90b7ea9709d11260773cbcf10ef470x209469c921db9d5bd77084370e80b63d5cdd63c10.02 xDAI
0x493485ef791240318a7c740efeab063ed81a0d531b47e86bbc8a800e39440748237799632022-08-19 15:35:3036 days 8 hrs ago 0x44ce2dd86fa90b7ea9709d11260773cbcf10ef470x209469c921db9d5bd77084370e80b63d5cdd63c10.02 xDAI
0xda1ca9ca721c208d594b9dbcc5266e2067bbc2f685e1e9be1bd4373561247fec237798702022-08-19 15:27:4536 days 8 hrs ago 0x44ce2dd86fa90b7ea9709d11260773cbcf10ef470x209469c921db9d5bd77084370e80b63d5cdd63c10.02 xDAI
0xf22b00909bfd112558749806fc14c9c20aea9f335db92cf84d521501a4d17b17237767002022-08-19 11:03:2536 days 12 hrs ago 0x44ce2dd86fa90b7ea9709d11260773cbcf10ef470x209469c921db9d5bd77084370e80b63d5cdd63c10.02 xDAI
0xa6b300c5a5c523c059865a06e781f53688ab5eb04a5f1ae4cb36c107e285d7eb231471462022-07-13 13:02:2073 days 10 hrs ago 0xc8451ba1741ddd216a9eb3d634ba782f90fa542a0x209469c921db9d5bd77084370e80b63d5cdd63c10.01 xDAI
[ Download CSV Export 
Loading

Contract Name:
0

Compiler Version
0

Optimization Enabled:
0

Other Settings:
-NA-
Block Transaction Gas Used Reward
Age Block Fee Address BC Fee Address Voting Power Jailed Incoming
Block Uncle Number Difficulty Gas Used Reward
Loading
Make sure to use the "Vote Down" button for any spammy posts, and the "Vote Up" for interesting conversations.